Time;durP1;ratioP1;P1;durP2;ratioP2;P2;SDS_P1;SDS_P2;PMS_P1;PMS_P2;Temp;Humidity;BMP_temperature;BMP_pressure;BME280_temperature;BME280_humidity;BME280_pressure;Samples;Min_cycle;Max_cycle;Signal;HPM_P1;HPM_P2
2022/04/07 00:00:33;;;;;;;4.18;2.17;;;;;;;8.85;85.85;99162.78;5105148;28;20043;-71
2022/04/07 00:02:58;;;;;;;3.28;1.90;;;;;;;8.84;85.73;99165.66;5105365;28;20441;-71
2022/04/07 00:05:24;;;;;;;4.32;2.00;;;;;;;8.80;86.05;99161.50;5097816;28;20027;-69
2022/04/07 00:07:49;;;;;;;6.07;1.88;;;;;;;8.80;85.35;99153.38;5093541;28;20032;-72
2022/04/07 00:10:15;;;;;;;7.53;1.80;;;;;;;8.80;85.50;99137.09;5106106;28;20475;-72
2022/04/07 00:12:42;;;;;;;4.10;1.55;;;;;;;8.76;85.13;99141.94;5097948;28;20062;-72
2022/04/07 00:15:08;;;;;;;8.90;2.10;;;;;;;8.73;85.33;99136.81;5096730;28;20035;-69
2022/04/07 00:17:34;;;;;;;3.50;1.70;;;;;;;8.71;85.69;99133.38;5108751;28;20119;-71
2022/04/07 00:19:59;;;;;;;6.07;2.00;;;;;;;8.69;85.43;99124.53;5091504;28;20103;-70
2022/04/07 00:22:24;;;;;;;5.85;1.83;;;;;;;8.71;85.69;99127.09;5099795;28;20026;-71
2022/04/07 00:24:50;;;;;;;6.65;2.63;;;;;;;8.72;85.16;99126.09;5109400;28;20032;-71
2022/04/07 00:27:16;;;;;;;10.23;1.70;;;;;;;8.73;85.00;99125.97;5109422;28;20201;-69
2022/04/07 00:29:41;;;;;;;5.55;1.90;;;;;;;8.74;85.52;99119.53;5102109;28;20396;-72
2022/04/07 00:32:07;;;;;;;2.83;1.88;;;;;;;8.72;85.07;99108.00;5102296;28;20036;-72
2022/04/07 00:34:33;;;;;;;7.28;1.88;;;;;;;8.72;85.55;99099.88;5089274;28;20367;-71
2022/04/07 00:36:58;;;;;;;9.13;1.75;;;;;;;8.68;85.48;99101.16;5097160;27;20034;-71
2022/04/07 00:39:23;;;;;;;9.63;1.98;;;;;;;8.68;85.70;99090.31;5090647;28;20035;-71
2022/04/07 00:41:49;;;;;;;5.18;2.00;;;;;;;8.64;86.24;99080.75;5108409;28;20040;-72
2022/04/07 00:44:14;;;;;;;6.97;2.60;;;;;;;8.62;85.81;99072.72;5107372;28;20566;-75
2022/04/07 00:46:41;;;;;;;5.40;2.17;;;;;;;8.60;86.15;99074.75;5094008;28;20213;-72
2022/04/07 00:49:07;;;;;;;4.65;1.95;;;;;;;8.58;85.89;99062.31;5095312;28;20024;-72
2022/04/07 00:51:34;;;;;;;7.13;2.50;;;;;;;8.59;86.12;99070.31;5106027;28;20543;-74
2022/04/07 00:54:00;;;;;;;4.55;1.92;;;;;;;8.58;86.88;99046.94;5095338;28;20124;-74
2022/04/07 00:56:26;;;;;;;7.10;2.25;;;;;;;8.57;86.73;99053.34;5104667;28;20129;-71
2022/04/07 00:58:53;;;;;;;9.05;1.90;;;;;;;8.55;87.19;99044.50;5108868;28;20078;-69
2022/04/07 01:01:22;;;;;;;6.95;2.33;;;;;;;8.55;87.14;99043.66;5099206;28;20489;-69
2022/04/07 01:03:49;;;;;;;8.70;2.47;;;;;;;8.54;87.23;99058.19;5098829;28;20404;-72
2022/04/07 01:06:14;;;;;;;4.90;2.50;;;;;;;8.53;87.91;99037.50;5101803;28;20572;-74
2022/04/07 01:08:40;;;;;;;9.88;4.32;;;;;;;8.51;87.81;99032.22;5107238;28;20102;-69
2022/04/07 01:11:05;;;;;;;6.20;3.20;;;;;;;8.48;88.17;99032.50;5110098;28;20044;-75
2022/04/07 01:13:49;;;;;;;5.22;2.33;;;;;;;8.45;88.52;99031.97;5109963;28;20262;-72
2022/04/07 01:16:16;;;;;;;6.30;2.17;;;;;;;8.43;88.63;99024.81;5090801;28;20398;-72
2022/04/07 01:18:42;;;;;;;9.68;2.80;;;;;;;8.45;88.96;99023.81;5104547;28;20031;-71
2022/04/07 01:21:10;;;;;;;5.03;2.42;;;;;;;8.40;89.22;99026.97;5096687;28;20039;-72
2022/04/07 01:23:38;;;;;;;8.45;2.80;;;;;;;8.41;88.68;99007.84;5088550;28;20028;-72
2022/04/07 01:26:05;;;;;;;6.68;2.63;;;;;;;8.43;88.15;99018.53;5105206;28;20490;-70
2022/04/07 01:28:31;;;;;;;10.55;2.95;;;;;;;8.45;87.97;98999.44;5095499;28;20028;-72
2022/04/07 01:30:57;;;;;;;11.50;2.53;;;;;;;8.47;88.45;99010.97;5112643;28;20382;-72
2022/04/07 01:33:23;;;;;;;8.80;2.55;;;;;;;8.45;87.85;98988.59;5092959;28;20050;-72
2022/04/07 01:35:49;;;;;;;7.95;2.50;;;;;;;8.48;87.68;98993.72;5100211;27;20031;-69
2022/04/07 01:38:16;;;;;;;6.45;2.40;;;;;;;8.50;87.28;98980.88;5096958;28;20471;-71
2022/04/07 01:40:43;;;;;;;4.57;2.13;;;;;;;8.49;87.44;98988.16;5107705;28;20611;-72
2022/04/07 01:43:09;;;;;;;5.60;2.28;;;;;;;8.50;87.31;98964.63;5091604;28;20398;-69
2022/04/07 01:45:35;;;;;;;4.38;2.40;;;;;;;8.53;86.73;98956.19;5115831;27;20024;-71
2022/04/07 01:48:03;;;;;;;8.88;2.50;;;;;;;8.53;87.03;98957.03;5113521;28;20035;-71
2022/04/07 01:50:29;;;;;;;9.00;2.10;;;;;;;8.54;86.07;98956.06;5102066;28;20091;-74
2022/04/07 01:52:56;;;;;;;9.55;2.65;;;;;;;8.56;86.36;98948.63;5102391;28;20061;-71
2022/04/07 01:55:22;;;;;;;7.97;2.65;;;;;;;8.59;85.86;98950.22;5112115;28;20039;-73
2022/04/07 01:57:49;;;;;;;9.13;2.45;;;;;;;8.58;86.11;98949.34;5098914;28;20044;-70
2022/04/07 02:00:14;;;;;;;8.32;2.33;;;;;;;8.61;86.13;98940.06;5103967;28;20032;-72
2022/04/07 02:02:41;;;;;;;5.28;2.50;;;;;;;8.57;86.25;98927.81;5107246;28;20039;-74
2022/04/07 02:05:11;;;;;;;5.30;2.28;;;;;;;8.61;85.82;98930.06;5084259;28;20036;-71
2022/04/07 02:07:39;;;;;;;5.55;2.42;;;;;;;8.61;85.99;98927.38;5093074;28;20047;-72
2022/04/07 02:10:06;;;;;;;6.00;2.47;;;;;;;8.60;86.21;98944.63;5113481;28;20031;-71
2022/04/07 02:12:33;;;;;;;5.35;2.85;;;;;;;8.61;86.12;98926.50;5111819;28;20563;-74
2022/04/07 02:15:02;;;;;;;11.05;2.53;;;;;;;8.62;85.89;98931.78;5111736;28;20054;-71
2022/04/07 02:17:27;;;;;;;8.93;2.50;;;;;;;8.58;86.47;98927.69;5104626;28;20019;-68
2022/04/07 02:19:55;;;;;;;10.02;2.90;;;;;;;8.58;86.06;98926.78;5098172;28;20497;-74
2022/04/07 02:22:20;;;;;;;7.75;2.40;;;;;;;8.55;86.16;98917.13;5108411;28;20035;-69
2022/04/07 02:24:47;;;;;;;10.60;4.00;;;;;;;8.57;85.82;98901.56;5112041;28;20085;-71
2022/04/07 02:27:13;;;;;;;11.88;2.70;;;;;;;8.59;86.18;98902.28;5112746;28;20038;-71
2022/04/07 02:29:38;;;;;;;8.57;2.25;;;;;;;8.61;86.14;98918.38;5111586;28;20035;-73
2022/04/07 02:32:05;;;;;;;5.25;2.42;;;;;;;8.61;85.66;98891.28;5107992;28;20380;-71
2022/04/07 02:34:30;;;;;;;15.00;2.45;;;;;;;8.62;85.29;98910.09;5106762;28;20035;-71
2022/04/07 02:36:56;;;;;;;9.50;1.98;;;;;;;8.64;85.40;98908.09;5107744;28;20026;-73
2022/04/07 02:39:21;;;;;;;10.18;2.67;;;;;;;8.67;84.89;98898.81;5109983;28;20035;-71
2022/04/07 02:41:47;;;;;;;10.07;2.72;;;;;;;8.67;84.93;98891.56;5099500;28;20081;-70
2022/04/07 02:44:12;;;;;;;15.15;2.85;;;;;;;8.67;84.41;98886.13;5092695;28;20379;-71
2022/04/07 02:46:38;;;;;;;6.20;2.20;;;;;;;8.70;84.49;98887.69;5106524;28;20031;-71
2022/04/07 02:49:06;;;;;;;8.27;2.80;;;;;;;8.71;84.91;98874.97;5104435;28;20110;-71
2022/04/07 02:51:31;;;;;;;9.82;2.30;;;;;;;8.70;83.99;98868.72;5099420;28;20032;-70
2022/04/07 02:53:58;;;;;;;8.35;2.33;;;;;;;8.70;83.88;98857.88;5105387;28;20035;-74
2022/04/07 02:56:27;;;;;;;7.95;2.33;;;;;;;8.72;83.82;98850.47;5112325;28;20030;-70
2022/04/07 02:58:53;;;;;;;6.65;2.13;;;;;;;8.73;83.59;98845.88;5107038;28;20571;-72
2022/04/07 03:01:18;;;;;;;6.15;3.13;;;;;;;8.77;83.04;98840.03;5108225;28;20410;-71
2022/04/07 03:03:44;;;;;;;6.18;2.65;;;;;;;8.80;83.59;98828.84;5111028;28;20114;-74
2022/04/07 03:06:10;;;;;;;6.40;2.50;;;;;;;8.82;83.50;98818.72;5096209;28;20084;-72
2022/04/07 03:08:35;;;;;;;7.13;2.50;;;;;;;8.86;82.93;98824.69;5100379;28;20061;-71
2022/04/07 03:11:01;;;;;;;7.80;2.30;;;;;;;8.85;83.02;98799.44;5112331;28;20049;-71
2022/04/07 03:13:27;;;;;;;23.70;4.05;;;;;;;8.88;82.75;98806.41;5096317;28;20057;-71
2022/04/07 03:15:53;;;;;;;8.35;2.28;;;;;;;8.87;82.80;98800.16;5090212;28;20020;-71
2022/04/07 03:18:18;;;;;;;9.45;2.83;;;;;;;8.87;82.59;98792.00;5108847;28;20058;-71
2022/04/07 03:20:43;;;;;;;5.80;2.42;;;;;;;8.91;82.63;98795.28;5096666;28;20027;-71
2022/04/07 03:23:09;;;;;;;11.18;3.25;;;;;;;8.92;82.19;98776.16;5092354;28;20475;-71
2022/04/07 03:25:34;;;;;;;12.15;3.05;;;;;;;8.93;82.50;98777.84;5110629;28;20040;-71
2022/04/07 03:27:59;;;;;;;6.70;2.33;;;;;;;8.93;81.99;98761.56;5110360;28;20402;-68
2022/04/07 03:30:25;;;;;;;8.27;2.83;;;;;;;8.92;82.45;98778.84;5085952;28;20032;-71
2022/04/07 03:32:50;;;;;;;12.57;3.05;;;;;;;8.92;81.65;98776.16;5098888;28;20039;-71
2022/04/07 03:35:16;;;;;;;4.82;2.88;;;;;;;8.95;82.06;98769.53;5094794;28;20016;-71
2022/04/07 03:37:42;;;;;;;9.02;2.10;;;;;;;8.97;81.39;98764.84;5096341;28;20042;-71
2022/04/07 03:40:08;;;;;;;6.28;1.95;;;;;;;8.98;81.92;98755.69;5102831;28;20032;-72
2022/04/07 03:42:33;;;;;;;8.93;2.03;;;;;;;9.00;80.56;98756.41;5107520;28;20164;-69
2022/04/07 03:44:59;;;;;;;5.55;2.08;;;;;;;9.03;81.26;98752.53;5091951;28;20103;-69
2022/04/07 03:47:24;;;;;;;8.25;2.20;;;;;;;9.03;81.09;98747.09;5117963;27;20046;-71
2022/04/07 03:49:49;;;;;;;11.00;2.67;;;;;;;9.01;81.22;98760.81;5091639;28;20097;-71
2022/04/07 03:52:15;;;;;;;5.60;2.17;;;;;;;9.02;80.85;98739.97;5091433;28;20696;-75
2022/04/07 03:54:41;;;;;;;10.77;2.60;;;;;;;9.04;80.59;98736.09;5091794;28;20360;-71
2022/04/07 03:57:06;;;;;;;6.30;2.40;;;;;;;9.05;81.17;98735.09;5097354;28;20050;-68
2022/04/07 03:59:37;;;;;;;6.18;2.33;;;;;;;9.01;80.96;98722.00;5099754;28;20555;-75
2022/04/07 04:02:05;;;;;;;7.72;2.22;;;;;;;9.04;80.97;98722.53;5102195;28;20109;-68
2022/04/07 04:04:30;;;;;;;11.60;2.95;;;;;;;9.01;81.86;98709.28;5107005;28;20504;-74
2022/04/07 04:06:56;;;;;;;9.35;2.30;;;;;;;8.98;81.64;98695.19;5074689;28;20116;-71
2022/04/07 04:09:21;;;;;;;8.20;2.20;;;;;;;8.94;81.32;98683.78;5103326;28;20035;-73
2022/04/07 04:11:47;;;;;;;5.22;2.72;;;;;;;8.91;81.20;98671.41;5110081;28;20019;-71
2022/04/07 04:14:12;;;;;;;6.38;2.17;;;;;;;8.93;81.33;98669.38;5100327;28;20490;-71
2022/04/07 04:16:37;;;;;;;6.28;1.98;;;;;;;8.93;81.24;98668.53;5106986;28;20394;-69
2022/04/07 04:19:03;;;;;;;8.23;2.30;;;;;;;8.91;80.72;98644.28;5104679;28;20530;-71
2022/04/07 04:21:28;;;;;;;5.88;2.28;;;;;;;8.96;81.05;98632.97;5080424;28;20123;-71
2022/04/07 04:23:54;;;;;;;5.95;2.22;;;;;;;8.94;81.40;98608.69;5100132;27;20019;-74
2022/04/07 04:26:19;;;;;;;6.85;2.17;;;;;;;8.90;81.43;98596.44;5119218;27;20534;-71
2022/04/07 04:28:44;;;;;;;9.32;1.95;;;;;;;8.95;80.94;98617.69;5097955;28;20120;-71
2022/04/07 04:31:10;;;;;;;3.13;1.92;;;;;;;8.94;80.90;98608.69;5092351;28;20071;-71
2022/04/07 04:33:35;;;;;;;6.43;1.90;;;;;;;8.94;81.06;98603.28;5104143;28;20124;-73
2022/04/07 04:36:00;;;;;;;6.88;2.80;;;;;;;8.96;80.85;98596.88;5101034;28;20024;-69
2022/04/07 04:38:26;;;;;;;5.38;1.73;;;;;;;9.01;81.01;98594.53;5104674;28;20030;-71
2022/04/07 04:40:51;;;;;;;3.85;1.70;;;;;;;9.04;80.60;98584.19;5108026;28;20031;-70
2022/04/07 04:43:17;;;;;;;4.72;2.35;;;;;;;9.05;80.79;98583.22;5106144;28;20027;-71
2022/04/07 04:45:42;;;;;;;5.93;2.17;;;;;;;9.05;80.93;98576.94;5086595;28;20064;-71
2022/04/07 04:48:08;;;;;;;6.80;1.65;;;;;;;9.04;80.98;98576.06;5083500;28;20035;-75
2022/04/07 04:50:34;;;;;;;4.18;1.60;;;;;;;9.01;81.86;98565.56;5102804;28;20032;-71
2022/04/07 04:53:00;;;;;;;4.50;1.70;;;;;;;8.97;82.76;98558.72;5106684;28;20457;-69
2022/04/07 04:55:25;;;;;;;4.60;1.75;;;;;;;8.91;83.47;98557.50;5110333;28;20039;-72
2022/04/07 04:57:50;;;;;;;4.20;1.80;;;;;;;8.88;84.02;98546.97;5113695;28;20042;-69
2022/04/07 05:00:16;;;;;;;6.75;2.22;;;;;;;8.86;84.31;98543.56;5112251;27;20032;-71
2022/04/07 05:02:41;;;;;;;6.57;1.33;;;;;;;8.88;84.64;98540.69;5093960;28;20044;-72
2022/04/07 05:05:07;;;;;;;5.88;1.40;;;;;;;8.85;84.78;98520.16;5091752;28;20409;-72
2022/04/07 05:07:33;;;;;;;6.80;1.60;;;;;;;8.84;84.56;98501.34;5090027;28;20067;-68
2022/04/07 05:09:58;;;;;;;4.30;1.50;;;;;;;8.84;84.55;98512.19;5093859;28;20089;-71
2022/04/07 05:12:24;;;;;;;4.40;1.55;;;;;;;8.82;84.97;98498.81;5088045;28;20039;-69
2022/04/07 05:14:49;;;;;;;2.22;1.42;;;;;;;8.84;84.81;98496.78;5089958;28;20028;-68
2022/04/07 05:17:17;;;;;;;3.58;1.35;;;;;;;8.84;85.32;98513.03;5090589;28;20056;-71
2022/04/07 05:19:44;;;;;;;4.28;2.17;;;;;;;8.83;84.67;98499.66;5089006;28;20044;-70
2022/04/07 05:22:10;;;;;;;4.85;1.52;;;;;;;8.86;84.59;98500.19;5093859;28;20043;-71
2022/04/07 05:24:35;;;;;;;2.60;1.77;;;;;;;8.85;84.63;98481.34;5100518;28;20027;-73
2022/04/07 05:27:01;;;;;;;3.97;1.98;;;;;;;8.86;85.07;98473.06;5083408;28;20036;-69
2022/04/07 05:29:26;;;;;;;2.53;1.58;;;;;;;8.84;85.88;98468.81;5088762;28;20039;-71
2022/04/07 05:31:51;;;;;;;4.63;2.10;;;;;;;8.73;86.49;98445.53;5091501;28;20047;-75
2022/04/07 05:34:17;;;;;;;6.93;1.67;;;;;;;8.72;87.15;98460.09;5093769;28;20055;-74
2022/04/07 05:36:42;;;;;;;3.72;1.90;;;;;;;8.71;86.88;98449.41;5075339;28;20479;-71
2022/04/07 05:39:07;;;;;;;2.10;1.70;;;;;;;8.69;87.32;98441.44;5087905;28;20089;-71
2022/04/07 05:41:33;;;;;;;4.13;2.10;;;;;;;8.67;87.90;98440.72;5092990;28;20911;-71
2022/04/07 05:43:58;;;;;;;3.13;2.25;;;;;;;8.62;88.45;98437.63;5092152;28;20097;-75
2022/04/07 05:46:23;;;;;;;2.72;1.88;;;;;;;8.58;89.24;98441.66;5088139;28;20094;-71
2022/04/07 05:48:49;;;;;;;3.58;1.83;;;;;;;8.52;89.60;98420.63;5089335;28;20032;-70
2022/04/07 05:51:14;;;;;;;4.65;1.92;;;;;;;8.47;89.98;98410.25;5080893;28;20460;-71
2022/04/07 05:53:39;;;;;;;6.15;2.40;;;;;;;8.44;90.11;98405.19;5088854;28;20039;-72
2022/04/07 05:56:05;;;;;;;5.25;2.22;;;;;;;8.43;90.28;98396.19;5089562;28;20491;-72
2022/04/07 05:58:30;;;;;;;3.70;2.47;;;;;;;8.39;90.53;98381.28;5089175;28;20055;-72
2022/04/07 06:00:55;;;;;;;5.90;2.55;;;;;;;8.37;90.50;98387.84;5088937;28;20027;-75
2022/04/07 06:03:21;;;;;;;5.57;2.10;;;;;;;8.39;90.75;98380.41;5089332;28;20039;-76
2022/04/07 06:05:52;;;;;;;6.00;2.90;;;;;;;8.34;90.79;98370.00;5087725;28;20032;-69
2022/04/07 06:08:21;;;;;;;10.05;2.50;;;;;;;8.35;91.24;98366.31;5088385;28;20039;-72
2022/04/07 06:10:47;;;;;;;9.00;3.58;;;;;;;8.33;90.40;98353.91;5089562;28;20077;-72
2022/04/07 06:13:14;;;;;;;6.43;2.38;;;;;;;8.35;90.59;98374.44;5092550;28;20043;-75
2022/04/07 06:15:40;;;;;;;6.72;2.58;;;;;;;8.34;90.78;98353.75;5091547;28;20032;-72
2022/04/07 06:18:05;;;;;;;4.00;2.70;;;;;;;8.34;90.72;98344.78;5097172;28;20493;-75
2022/04/07 06:20:31;;;;;;;9.55;2.88;;;;;;;8.31;91.08;98337.84;5097441;28;20054;-72
2022/04/07 06:22:57;;;;;;;7.32;2.97;;;;;;;8.35;90.52;98330.25;5096934;28;20483;-72
2022/04/07 06:25:22;;;;;;;7.53;3.45;;;;;;;8.33;90.93;98324.13;5107681;28;20435;-72
2022/04/07 06:27:48;;;;;;;6.13;2.67;;;;;;;8.33;90.76;98316.84;5099997;28;20084;-71
2022/04/07 06:30:16;;;;;;;6.95;3.05;;;;;;;8.34;90.90;98315.81;5112931;28;20082;-72
2022/04/07 06:32:43;;;;;;;6.95;3.20;;;;;;;8.39;90.49;98312.66;5112934;28;20119;-72
2022/04/07 06:35:10;;;;;;;10.45;2.70;;;;;;;8.35;90.75;98314.00;5103881;28;20054;-72
2022/04/07 06:37:51;;;;;;;8.48;2.70;;;;;;;8.35;90.97;98304.00;5096866;28;20394;-73
2022/04/07 06:40:19;;;;;;;3.60;2.25;;;;;;;8.31;90.56;98291.78;5105949;28;20078;-69
2022/04/07 06:42:44;;;;;;;8.85;2.42;;;;;;;8.30;90.59;98276.53;5107167;28;20039;-77
2022/04/07 06:45:09;;;;;;;5.82;2.10;;;;;;;8.31;90.61;98269.25;5103711;28;20035;-72
2022/04/07 06:47:42;;;;;;;3.83;1.95;;;;;;;8.33;91.08;98261.81;5113635;27;20126;-68
2022/04/07 06:50:12;;;;;;;6.55;2.28;;;;;;;8.34;91.70;98264.34;5103417;28;20032;-72
2022/04/07 06:52:38;;;;;;;5.78;2.75;;;;;;;8.37;91.22;98260.53;5095467;28;20067;-72
2022/04/07 06:55:04;;;;;;;5.82;1.65;;;;;;;8.35;91.42;98246.28;5091986;28;20032;-75
2022/04/07 06:57:30;;;;;;;6.05;1.90;;;;;;;8.34;91.09;98239.13;5090492;28;20051;-72
2022/04/07 06:59:56;;;;;;;3.92;1.70;;;;;;;8.34;91.37;98234.56;5091715;28;20399;-73
2022/04/07 07:02:22;;;;;;;8.30;2.17;;;;;;;8.34;91.48;98223.72;5091396;28;20036;-69
2022/04/07 07:04:47;;;;;;;5.30;1.70;;;;;;;8.34;91.66;98207.47;5091235;28;20770;-72
2022/04/07 07:07:13;;;;;;;4.72;1.45;;;;;;;8.35;91.65;98206.47;5092969;28;20028;-72
2022/04/07 07:09:38;;;;;;;12.35;2.30;;;;;;;8.35;91.50;98200.22;5091771;28;20493;-69
2022/04/07 07:12:04;;;;;;;5.60;1.95;;;;;;;8.33;91.87;98188.69;5073412;28;20024;-73
2022/04/07 07:14:30;;;;;;;5.03;1.73;;;;;;;8.29;91.82;98166.47;5088805;28;20116;-76
2022/04/07 07:16:55;;;;;;;4.40;1.88;;;;;;;8.35;92.61;98165.00;5092853;28;20036;-72
2022/04/07 07:19:26;;;;;;;7.05;2.63;;;;;;;8.35;92.32;98154.16;5095554;28;20536;-69
2022/04/07 07:21:52;;;;;;;8.57;1.95;;;;;;;8.36;92.68;98155.84;5100906;28;20048;-69
2022/04/07 07:24:17;;;;;;;10.68;2.03;;;;;;;8.33;92.78;98140.75;5107136;28;20031;-69
2022/04/07 07:26:43;;;;;;;6.90;1.90;;;;;;;8.35;93.00;98135.22;5110513;28;20089;-72
2022/04/07 07:29:08;;;;;;;4.78;2.00;;;;;;;8.36;92.92;98107.09;5110611;28;20032;-72
2022/04/07 07:31:35;;;;;;;4.63;1.33;;;;;;;8.39;93.01;98109.50;5103013;28;20020;-72
2022/04/07 07:34:00;;;;;;;4.32;1.75;;;;;;;8.41;93.34;98091.22;5109212;28;20027;-72
2022/04/07 07:36:26;;;;;;;4.85;2.47;;;;;;;8.46;93.08;98129.50;5099123;28;20046;-73
2022/04/07 07:38:51;;;;;;;3.55;1.77;;;;;;;8.49;93.18;98186.09;5104222;28;20031;-72
2022/04/07 07:41:16;;;;;;;7.28;1.40;;;;;;;8.45;89.64;98190.13;5112060;28;20043;-76
2022/04/07 07:43:42;;;;;;;3.03;1.02;;;;;;;8.00;85.52;98201.19;5096159;28;20055;-76
2022/04/07 07:46:07;;;;;;;8.85;0.90;;;;;;;7.56;87.55;98201.25;5109111;28;20102;-71
2022/04/07 07:48:33;;;;;;;1.05;0.70;;;;;;;7.20;87.57;98258.06;5104493;28;20483;-68
2022/04/07 07:50:58;;;;;;;2.35;1.05;;;;;;;6.95;89.00;98296.63;5106790;28;20059;-71
2022/04/07 07:53:24;;;;;;;0.70;0.50;;;;;;;6.83;89.56;98298.69;5106392;27;20027;-68
2022/04/07 07:55:50;;;;;;;2.42;0.80;;;;;;;6.78;89.79;98298.28;5085128;28;20028;-74
2022/04/07 07:58:15;;;;;;;1.30;0.80;;;;;;;6.71;89.55;98298.03;5104900;27;20438;-71
2022/04/07 08:00:41;;;;;;;3.72;0.98;;;;;;;6.67;89.87;98291.25;5131890;27;20049;-70
2022/04/07 08:03:07;;;;;;;3.03;1.08;;;;;;;6.64;90.12;98276.16;5096403;27;20042;-68
2022/04/07 08:05:32;;;;;;;1.67;0.80;;;;;;;6.65;90.14;98271.63;5100664;27;20040;-76
2022/04/07 08:07:58;;;;;;;1.25;1.00;;;;;;;6.63;90.02;98268.22;5091983;28;20452;-77
2022/04/07 08:10:23;;;;;;;2.50;1.30;;;;;;;6.61;90.48;98249.44;5109826;28;20024;-70
2022/04/07 08:12:49;;;;;;;2.72;0.80;;;;;;;6.64;90.32;98267.22;5104265;28;20043;-71
2022/04/07 08:15:14;;;;;;;3.05;1.10;;;;;;;6.63;90.20;98262.81;5109369;28;20382;-70
2022/04/07 08:17:39;;;;;;;3.67;1.20;;;;;;;6.65;90.33;98260.81;5109841;28;20036;-72
2022/04/07 08:20:07;;;;;;;3.20;1.20;;;;;;;6.65;90.02;98258.09;5094810;28;20024;-77
2022/04/07 08:22:33;;;;;;;2.90;1.20;;;;;;;6.70;90.89;98258.50;5097915;28;20058;-71
2022/04/07 08:24:58;;;;;;;2.13;0.95;;;;;;;6.82;91.14;98257.31;5103714;28;20023;-71
2022/04/07 08:27:24;;;;;;;3.42;1.10;;;;;;;6.88;90.74;98256.69;5113510;27;20522;-71
2022/04/07 08:29:50;;;;;;;3.90;1.25;;;;;;;7.00;91.02;98254.66;5101479;28;20471;-72
2022/04/07 08:32:15;;;;;;;1.67;1.02;;;;;;;7.11;90.99;98240.91;5109837;28;20490;-76
2022/04/07 08:34:41;;;;;;;3.22;0.95;;;;;;;7.17;90.06;98250.25;5106812;27;20042;-72
2022/04/07 08:37:06;;;;;;;2.58;1.27;;;;;;;7.24;91.00;98251.34;5094465;28;20040;-67
2022/04/07 08:39:32;;;;;;;3.65;1.10;;;;;;;7.38;91.12;98258.06;5095882;28;20510;-67
2022/04/07 08:41:58;;;;;;;4.85;1.35;;;;;;;7.57;90.77;98248.94;5110555;28;20482;-70
2022/04/07 08:44:31;;;;;;;2.90;1.33;;;;;;;7.71;90.73;98244.81;5092533;28;20118;-71
2022/04/07 08:46:56;;;;;;;;;;;;;;;7.81;90.15;98242.88;5098307;28;20069;-74
2022/04/07 08:49:23;;;;;;;3.33;1.10;;;;;;;7.78;90.04;98219.66;5091860;28;20302;-72
2022/04/07 08:51:52;;;;;;;2.28;1.20;;;;;;;7.96;90.70;98226.88;5094044;28;20086;-68
2022/04/07 08:54:19;;;;;;;7.60;1.45;;;;;;;8.06;89.23;98225.75;5106967;28;20364;-68
2022/04/07 08:56:45;;;;;;;3.47;1.17;;;;;;;8.16;90.36;98220.25;5119704;27;20385;-71
2022/04/07 08:59:11;;;;;;;3.47;1.10;;;;;;;8.41;91.08;98237.50;5100627;28;20564;-71
2022/04/07 09:01:36;;;;;;;8.13;1.50;;;;;;;8.68;89.66;98242.72;5110104;28;20032;-70
2022/04/07 09:04:02;;;;;;;6.50;0.80;;;;;;;8.92;89.06;98232.97;5110348;28;20035;-75
2022/04/07 09:06:29;;;;;;;0.90;0.80;;;;;;;9.08;88.19;98232.16;5092744;28;20077;-70
2022/04/07 09:08:54;;;;;;;2.45;0.95;;;;;;;9.22;87.60;98241.50;5100808;28;20047;-67
2022/04/07 09:11:21;;;;;;;5.22;1.13;;;;;;;9.21;87.11;98240.66;5109961;28;20023;-74
2022/04/07 09:13:47;;;;;;;4.78;1.88;;;;;;;9.22;86.67;98242.34;5109219;28;20032;-71
2022/04/07 09:16:14;;;;;;;7.22;1.63;;;;;;;9.38;87.92;98246.97;5108016;28;20494;-76
2022/04/07 09:18:45;;;;;;;4.93;1.85;;;;;;;9.65;87.94;98241.25;5107161;28;20064;-70
2022/04/07 09:21:27;;;;;;;2.13;1.58;;;;;;;9.85;86.63;98235.47;5097942;28;20031;-71
2022/04/07 09:23:58;;;;;;;2.80;1.50;;;;;;;9.96;85.75;98238.66;5089505;28;20075;-71
2022/04/07 09:26:24;;;;;;;3.00;1.58;;;;;;;10.17;86.93;98231.84;5100363;28;20058;-71
2022/04/07 09:28:54;;;;;;;2.25;1.52;;;;;;;10.36;85.51;98231.50;5108840;28;20126;-70
2022/04/07 09:31:22;;;;;;;3.72;1.50;;;;;;;10.62;83.70;98250.25;5109961;28;20526;-71
2022/04/07 09:33:55;;;;;;;3.65;1.38;;;;;;;10.89;84.43;98246.25;5114896;28;20024;-75
2022/04/07 09:36:22;;;;;;;4.68;1.70;;;;;;;11.19;83.21;98265.47;5100045;28;20043;-71
2022/04/07 09:38:53;;;;;;;4.88;1.67;;;;;;;11.23;80.23;98264.94;5090947;28;20056;-70
2022/04/07 09:41:19;;;;;;;5.68;1.40;;;;;;;11.07;77.78;98258.75;5123241;27;20028;-68
2022/04/07 09:43:47;;;;;;;2.47;1.10;;;;;;;11.10;79.50;98264.69;5110213;28;20491;-75
2022/04/07 09:46:18;;;;;;;4.85;1.38;;;;;;;10.96;78.14;98266.28;5095743;28;20039;-70
2022/04/07 09:48:59;;;;;;;5.22;1.60;;;;;;;10.88;79.15;98262.75;5113589;28;20047;-73
2022/04/07 09:51:27;;;;;;;5.20;1.93;;;;;;;10.94;79.33;98257.44;5103962;28;20364;-76
2022/04/07 09:53:55;;;;;;;3.70;1.35;;;;;;;11.12;77.74;98245.44;5105679;28;20040;-71
2022/04/07 09:56:24;;;;;;;2.70;1.15;;;;;;;11.33;76.64;98251.13;5113518;28;20035;-68
2022/04/07 09:58:51;;;;;;;5.78;1.38;;;;;;;11.33;74.56;98266.56;5113571;28;20067;-71
2022/04/07 10:01:17;;;;;;;3.45;1.13;;;;;;;11.16;72.23;98254.94;5113520;28;20031;-71
2022/04/07 10:03:43;;;;;;;4.10;1.25;;;;;;;11.08;73.02;98269.44;5106419;28;20488;-71
2022/04/07 10:06:09;;;;;;;3.05;1.30;;;;;;;11.12;71.34;98262.63;5099095;28;20043;-75
2022/04/07 10:08:36;;;;;;;6.28;1.35;;;;;;;11.09;70.47;98248.50;5098549;28;20035;-70
2022/04/07 10:11:03;;;;;;;2.50;1.23;;;;;;;11.18;72.14;98261.06;5095160;28;20161;-71
2022/04/07 10:13:30;;;;;;;5.65;1.27;;;;;;;11.37;71.43;98260.59;5105556;28;20509;-70
2022/04/07 10:15:57;;;;;;;3.08;1.02;;;;;;;11.62;68.18;98280.34;5113179;28;20518;-70
2022/04/07 10:18:38;;;;;;;3.60;1.02;;;;;;;11.56;69.16;98286.50;5123386;27;20022;-71
2022/04/07 10:21:06;;;;;;;4.45;1.25;;;;;;;11.32;67.30;98273.91;5106770;28;20047;-71
2022/04/07 10:24:03;;;;;;;7.95;1.67;;;;;;;11.26;68.63;98287.38;5103264;28;20453;-71
2022/04/07 10:26:29;;;;;;;7.25;1.20;;;;;;;11.41;67.39;98291.03;5113121;28;20494;-68
2022/04/07 10:28:55;;;;;;;9.52;2.08;;;;;;;11.54;66.61;98272.22;5098776;28;20027;-68
2022/04/07 10:31:22;;;;;;;6.82;1.25;;;;;;;11.84;65.05;98270.50;5111573;28;20130;-71
2022/04/07 10:33:48;;;;;;;7.43;1.40;;;;;;;12.09;66.98;98279.31;5098404;28;20028;-70
2022/04/07 10:36:18;;;;;;;5.50;0.90;;;;;;;12.36;65.55;98283.34;5104631;28;20044;-73
2022/04/07 10:38:50;;;;;;;8.93;1.38;;;;;;;12.67;65.51;98276.88;5098655;28;20044;-71
2022/04/07 10:41:40;;;;;;;3.85;1.42;;;;;;;13.06;62.87;98278.47;5113225;28;20027;-71
2022/04/07 10:44:12;;;;;;;7.38;1.45;;;;;;;13.20;61.49;98289.34;5088049;28;20043;-71
2022/04/07 10:46:38;;;;;;;4.82;1.40;;;;;;;13.35;63.04;98324.84;5112425;28;20039;-70
2022/04/07 10:49:06;;;;;;;4.97;1.70;;;;;;;13.16;61.94;98322.69;5111175;28;20035;-71
2022/04/07 10:51:41;;;;;;;4.35;1.23;;;;;;;12.72;60.28;98334.44;5088386;28;20030;-70
2022/04/07 10:54:07;;;;;;;6.88;1.52;;;;;;;12.23;59.58;98324.84;5106597;28;20473;-68
2022/04/07 10:56:38;;;;;;;7.10;1.38;;;;;;;12.07;59.77;98314.06;5112499;28;20114;-70
2022/04/07 10:59:10;;;;;;;4.43;1.30;;;;;;;11.95;60.29;98340.06;5111920;28;20048;-75
2022/04/07 11:01:38;;;;;;;8.05;1.52;;;;;;;11.83;61.20;98336.06;5096887;28;20532;-71
2022/04/07 11:04:21;;;;;;;6.95;1.50;;;;;;;11.99;63.22;98334.09;5104885;28;20050;-68
2022/04/07 11:07:02;;;;;;;9.82;2.53;;;;;;;12.41;61.36;98345.50;5092355;28;20412;-75
2022/04/07 11:09:55;;;;;;;5.57;2.53;;;;;;;12.34;61.50;98360.88;5106643;28;20032;-71
2022/04/07 11:12:22;;;;;;;;;;;;;;;12.16;62.82;98356.59;5107214;28;20500;-74
2022/04/07 11:14:50;;;;;;;13.90;1.73;;;;;;;11.90;59.62;98364.31;5094131;28;19912;-68
2022/04/07 11:17:37;;;;;;;4.57;1.20;;;;;;;11.94;62.38;98376.53;5096035;28;20584;-71
2022/04/07 11:20:05;;;;;;;8.77;1.33;;;;;;;12.22;61.16;98395.91;5096653;28;20045;-70
2022/04/07 11:22:54;;;;;;;6.72;1.50;;;;;;;12.16;59.93;98385.72;5103807;28;20065;-75
2022/04/07 11:25:37;;;;;;;7.28;1.73;;;;;;;12.10;59.86;98381.84;5107429;28;20067;-70
2022/04/07 11:28:22;;;;;;;10.63;2.15;;;;;;;11.99;59.87;98376.84;5093425;28;20032;-74
2022/04/07 11:30:56;;;;;;;11.00;1.98;;;;;;;11.85;58.66;98389.34;5099356;28;20047;-68
2022/04/07 11:33:25;;;;;;;9.15;1.50;;;;;;;11.84;59.09;98389.50;5109881;28;20035;-70
2022/04/07 11:36:00;;;;;;;8.82;1.70;;;;;;;11.69;58.98;98403.88;5093189;28;20020;-73
2022/04/07 11:38:28;;;;;;;7.65;1.50;;;;;;;11.53;59.99;98406.69;5096296;28;20073;-70